sensor_id;sensor_type;location;lat;lon;timestamp;temperature;humidity
23783;DHT22;12071;50.850;4.446;2023-07-31T00:00:12;17.50;1.00
23783;DHT22;12071;50.850;4.446;2023-07-31T00:02:38;17.50;1.00
23783;DHT22;12071;50.850;4.446;2023-07-31T00:05:04;17.50;1.00
23783;DHT22;12071;50.850;4.446;2023-07-31T00:07:30;17.50;1.00
23783;DHT22;12071;50.850;4.446;2023-07-31T00:09:56;17.40;1.00
23783;DHT22;12071;50.850;4.446;2023-07-31T00:12:22;17.40;1.00
23783;DHT22;12071;50.850;4.446;2023-07-31T00:14:48;17.50;1.00
23783;DHT22;12071;50.850;4.446;2023-07-31T00:17:14;17.60;1.00
23783;DHT22;12071;50.850;4.446;2023-07-31T00:19:39;17.80;1.00
23783;DHT22;12071;50.850;4.446;2023-07-31T00:22:05;17.80;1.00
23783;DHT22;12071;50.850;4.446;2023-07-31T00:24:31;17.90;1.00
23783;DHT22;12071;50.850;4.446;2023-07-31T00:26:56;18.10;1.00
23783;DHT22;12071;50.850;4.446;2023-07-31T00:29:22;17.80;1.00
23783;DHT22;12071;50.850;4.446;2023-07-31T00:31:48;17.70;1.00
23783;DHT22;12071;50.850;4.446;2023-07-31T00:34:13;17.60;1.00
23783;DHT22;12071;50.850;4.446;2023-07-31T00:36:39;17.80;1.00
23783;DHT22;12071;50.850;4.446;2023-07-31T00:39:04;17.70;1.00
23783;DHT22;12071;50.850;4.446;2023-07-31T00:41:30;17.70;1.00
23783;DHT22;12071;50.850;4.446;2023-07-31T00:43:56;17.60;1.00
23783;DHT22;12071;50.850;4.446;2023-07-31T00:46:21;17.80;1.00
23783;DHT22;12071;50.850;4.446;2023-07-31T00:48:47;17.60;1.00
23783;DHT22;12071;50.850;4.446;2023-07-31T00:51:13;17.70;1.00
23783;DHT22;12071;50.850;4.446;2023-07-31T00:53:40;17.70;1.00
23783;DHT22;12071;50.850;4.446;2023-07-31T00:56:06;17.60;1.00
23783;DHT22;12071;50.850;4.446;2023-07-31T00:58:32;17.60;1.00
23783;DHT22;12071;50.850;4.446;2023-07-31T01:00:58;17.80;1.00
23783;DHT22;12071;50.850;4.446;2023-07-31T01:03:24;17.80;1.00
23783;DHT22;12071;50.850;4.446;2023-07-31T01:06:03;17.70;1.00
23783;DHT22;12071;50.850;4.446;2023-07-31T01:11:20;17.70;1.00
23783;DHT22;12071;50.850;4.446;2023-07-31T01:13:47;17.60;1.00
23783;DHT22;12071;50.850;4.446;2023-07-31T01:16:14;17.60;1.00
23783;DHT22;12071;50.850;4.446;2023-07-31T01:18:39;17.60;1.00
23783;DHT22;12071;50.850;4.446;2023-07-31T01:24:06;17.50;1.00
23783;DHT22;12071;50.850;4.446;2023-07-31T01:26:34;17.50;1.00
23783;DHT22;12071;50.850;4.446;2023-07-31T01:31:31;17.60;1.00
23783;DHT22;12071;50.850;4.446;2023-07-31T01:34:00;17.60;1.00
23783;DHT22;12071;50.850;4.446;2023-07-31T01:36:27;17.70;1.00
23783;DHT22;12071;50.850;4.446;2023-07-31T01:38:58;17.90;1.00
23783;DHT22;12071;50.850;4.446;2023-07-31T01:41:24;17.90;1.00
23783;DHT22;12071;50.850;4.446;2023-07-31T01:43:49;17.80;1.00
23783;DHT22;12071;50.850;4.446;2023-07-31T01:46:15;17.80;1.00
23783;DHT22;12071;50.850;4.446;2023-07-31T01:48:40;17.60;1.00
23783;DHT22;12071;50.850;4.446;2023-07-31T01:51:06;17.60;1.00
23783;DHT22;12071;50.850;4.446;2023-07-31T01:53:32;17.70;1.00
23783;DHT22;12071;50.850;4.446;2023-07-31T01:55:57;17.80;1.00
23783;DHT22;12071;50.850;4.446;2023-07-31T01:58:23;17.90;1.00
23783;DHT22;12071;50.850;4.446;2023-07-31T02:00:49;18.10;1.00
23783;DHT22;12071;50.850;4.446;2023-07-31T02:03:14;18.00;1.00
23783;DHT22;12071;50.850;4.446;2023-07-31T02:05:49;17.90;1.00
23783;DHT22;12071;50.850;4.446;2023-07-31T02:08:16;17.90;1.00
23783;DHT22;12071;50.850;4.446;2023-07-31T02:10:41;18.00;1.00
23783;DHT22;12071;50.850;4.446;2023-07-31T02:13:07;17.90;1.00
23783;DHT22;12071;50.850;4.446;2023-07-31T02:15:33;17.60;1.00
23783;DHT22;12071;50.850;4.446;2023-07-31T02:17:59;17.70;1.00
23783;DHT22;12071;50.850;4.446;2023-07-31T02:20:25;17.80;1.00
23783;DHT22;12071;50.850;4.446;2023-07-31T02:22:50;17.80;1.00
23783;DHT22;12071;50.850;4.446;2023-07-31T02:25:16;17.70;1.00
23783;DHT22;12071;50.850;4.446;2023-07-31T02:27:42;17.80;1.00
23783;DHT22;12071;50.850;4.446;2023-07-31T02:30:08;17.80;1.00
23783;DHT22;12071;50.850;4.446;2023-07-31T02:32:34;17.80;1.00
23783;DHT22;12071;50.850;4.446;2023-07-31T02:35:00;17.80;1.00
23783;DHT22;12071;50.850;4.446;2023-07-31T02:37:25;17.90;1.00
23783;DHT22;12071;50.850;4.446;2023-07-31T02:39:51;17.90;1.00
23783;DHT22;12071;50.850;4.446;2023-07-31T02:42:17;17.90;1.00
23783;DHT22;12071;50.850;4.446;2023-07-31T02:44:43;17.90;1.00
23783;DHT22;12071;50.850;4.446;2023-07-31T02:47:08;17.90;1.00
23783;DHT22;12071;50.850;4.446;2023-07-31T02:49:34;17.80;1.00
23783;DHT22;12071;50.850;4.446;2023-07-31T02:51:59;17.90;1.00
23783;DHT22;12071;50.850;4.446;2023-07-31T02:54:25;17.90;1.00
23783;DHT22;12071;50.850;4.446;2023-07-31T02:56:50;17.80;1.00
23783;DHT22;12071;50.850;4.446;2023-07-31T02:59:17;17.90;1.00
23783;DHT22;12071;50.850;4.446;2023-07-31T03:01:43;17.70;1.00
23783;DHT22;12071;50.850;4.446;2023-07-31T03:04:08;17.60;1.00
23783;DHT22;12071;50.850;4.446;2023-07-31T03:06:34;17.60;1.00
23783;DHT22;12071;50.850;4.446;2023-07-31T03:08:59;17.70;1.00
23783;DHT22;12071;50.850;4.446;2023-07-31T03:11:25;17.80;1.00
23783;DHT22;12071;50.850;4.446;2023-07-31T03:13:51;17.90;1.00
23783;DHT22;12071;50.850;4.446;2023-07-31T03:16:16;17.90;1.00
23783;DHT22;12071;50.850;4.446;2023-07-31T03:18:42;18.00;1.00
23783;DHT22;12071;50.850;4.446;2023-07-31T03:21:07;17.90;1.00
23783;DHT22;12071;50.850;4.446;2023-07-31T03:23:33;17.80;1.00
23783;DHT22;12071;50.850;4.446;2023-07-31T03:26:05;17.80;1.00
23783;DHT22;12071;50.850;4.446;2023-07-31T03:28:31;17.70;1.00
23783;DHT22;12071;50.850;4.446;2023-07-31T03:30:56;17.70;1.00
23783;DHT22;12071;50.850;4.446;2023-07-31T03:33:22;17.50;1.00
23783;DHT22;12071;50.850;4.446;2023-07-31T03:35:48;17.70;1.00
23783;DHT22;12071;50.850;4.446;2023-07-31T03:38:13;17.60;1.00
23783;DHT22;12071;50.850;4.446;2023-07-31T03:40:39;17.50;1.00
23783;DHT22;12071;50.850;4.446;2023-07-31T03:43:05;17.50;1.00
23783;DHT22;12071;50.850;4.446;2023-07-31T03:45:31;17.60;1.00
23783;DHT22;12071;50.850;4.446;2023-07-31T03:47:56;17.60;1.00
23783;DHT22;12071;50.850;4.446;2023-07-31T03:50:22;17.50;1.00
23783;DHT22;12071;50.850;4.446;2023-07-31T03:52:48;17.50;1.00
23783;DHT22;12071;50.850;4.446;2023-07-31T03:55:13;17.60;1.00
23783;DHT22;12071;50.850;4.446;2023-07-31T03:57:39;17.60;1.00
23783;DHT22;12071;50.850;4.446;2023-07-31T04:00:05;17.50;1.00
23783;DHT22;12071;50.850;4.446;2023-07-31T04:02:31;17.40;1.00
23783;DHT22;12071;50.850;4.446;2023-07-31T04:04:56;17.30;1.00
23783;DHT22;12071;50.850;4.446;2023-07-31T04:07:22;17.40;1.00
23783;DHT22;12071;50.850;4.446;2023-07-31T04:09:47;17.50;1.00
23783;DHT22;12071;50.850;4.446;2023-07-31T04:12:13;17.50;1.00
23783;DHT22;12071;50.850;4.446;2023-07-31T04:14:38;17.50;1.00
23783;DHT22;12071;50.850;4.446;2023-07-31T04:17:04;17.40;1.00
23783;DHT22;12071;50.850;4.446;2023-07-31T04:19:30;17.30;1.00
23783;DHT22;12071;50.850;4.446;2023-07-31T04:21:55;17.30;1.00
23783;DHT22;12071;50.850;4.446;2023-07-31T04:24:21;17.40;1.00
23783;DHT22;12071;50.850;4.446;2023-07-31T04:26:52;17.30;1.00
23783;DHT22;12071;50.850;4.446;2023-07-31T04:29:18;17.40;1.00
23783;DHT22;12071;50.850;4.446;2023-07-31T04:31:44;17.40;1.00
23783;DHT22;12071;50.850;4.446;2023-07-31T04:34:10;17.50;1.00
23783;DHT22;12071;50.850;4.446;2023-07-31T04:36:36;17.40;1.00
23783;DHT22;12071;50.850;4.446;2023-07-31T04:39:02;17.50;1.00
23783;DHT22;12071;50.850;4.446;2023-07-31T04:41:28;17.60;1.00
23783;DHT22;12071;50.850;4.446;2023-07-31T04:43:53;17.50;1.00
23783;DHT22;12071;50.850;4.446;2023-07-31T04:46:19;17.40;1.00
23783;DHT22;12071;50.850;4.446;2023-07-31T04:48:44;17.30;1.00
23783;DHT22;12071;50.850;4.446;2023-07-31T04:51:10;17.40;1.00
23783;DHT22;12071;50.850;4.446;2023-07-31T04:53:36;17.30;1.00
23783;DHT22;12071;50.850;4.446;2023-07-31T04:56:01;17.50;1.00
23783;DHT22;12071;50.850;4.446;2023-07-31T04:58:27;17.50;1.00
23783;DHT22;12071;50.850;4.446;2023-07-31T05:00:53;17.50;1.00
23783;DHT22;12071;50.850;4.446;2023-07-31T05:03:18;17.30;1.00
23783;DHT22;12071;50.850;4.446;2023-07-31T05:05:44;17.50;1.00
23783;DHT22;12071;50.850;4.446;2023-07-31T05:08:09;17.30;1.00
23783;DHT22;12071;50.850;4.446;2023-07-31T05:10:35;17.20;1.00
23783;DHT22;12071;50.850;4.446;2023-07-31T05:13:00;17.30;1.00
23783;DHT22;12071;50.850;4.446;2023-07-31T05:15:26;17.30;1.00
23783;DHT22;12071;50.850;4.446;2023-07-31T05:17:51;17.30;1.00
23783;DHT22;12071;50.850;4.446;2023-07-31T05:20:17;17.30;1.00
23783;DHT22;12071;50.850;4.446;2023-07-31T05:22:43;17.40;1.00
23783;DHT22;12071;50.850;4.446;2023-07-31T05:25:10;17.30;1.00
23783;DHT22;12071;50.850;4.446;2023-07-31T05:27:35;17.40;1.00
23783;DHT22;12071;50.850;4.446;2023-07-31T05:30:01;17.30;1.00
23783;DHT22;12071;50.850;4.446;2023-07-31T05:32:27;17.10;1.00
23783;DHT22;12071;50.850;4.446;2023-07-31T05:34:53;17.10;1.00
23783;DHT22;12071;50.850;4.446;2023-07-31T05:37:19;17.00;1.00
23783;DHT22;12071;50.850;4.446;2023-07-31T05:39:45;17.10;1.00
23783;DHT22;12071;50.850;4.446;2023-07-31T05:42:11;17.10;1.00
23783;DHT22;12071;50.850;4.446;2023-07-31T05:44:36;17.20;1.00
23783;DHT22;12071;50.850;4.446;2023-07-31T05:47:02;17.00;1.00
23783;DHT22;12071;50.850;4.446;2023-07-31T05:49:28;16.90;1.00
23783;DHT22;12071;50.850;4.446;2023-07-31T05:51:53;17.10;1.00
23783;DHT22;12071;50.850;4.446;2023-07-31T05:54:19;17.00;1.00
23783;DHT22;12071;50.850;4.446;2023-07-31T05:56:44;16.90;1.00
23783;DHT22;12071;50.850;4.446;2023-07-31T05:59:12;17.00;1.00
23783;DHT22;12071;50.850;4.446;2023-07-31T06:01:39;17.00;1.00
23783;DHT22;12071;50.850;4.446;2023-07-31T06:04:04;17.00;1.00
23783;DHT22;12071;50.850;4.446;2023-07-31T06:06:30;17.00;1.00
23783;DHT22;12071;50.850;4.446;2023-07-31T06:08:56;17.10;1.00
23783;DHT22;12071;50.850;4.446;2023-07-31T06:11:21;17.10;1.00
23783;DHT22;12071;50.850;4.446;2023-07-31T06:13:47;17.20;1.00
23783;DHT22;12071;50.850;4.446;2023-07-31T06:16:14;17.20;1.00
23783;DHT22;12071;50.850;4.446;2023-07-31T06:18:41;17.20;1.00
23783;DHT22;12071;50.850;4.446;2023-07-31T06:21:07;17.20;1.00
23783;DHT22;12071;50.850;4.446;2023-07-31T06:23:33;17.30;1.00
23783;DHT22;12071;50.850;4.446;2023-07-31T06:25:58;17.40;1.00
23783;DHT22;12071;50.850;4.446;2023-07-31T06:28:28;17.40;1.00
23783;DHT22;12071;50.850;4.446;2023-07-31T06:30:54;17.40;1.00
23783;DHT22;12071;50.850;4.446;2023-07-31T06:33:20;17.40;1.00
23783;DHT22;12071;50.850;4.446;2023-07-31T06:35:46;17.30;1.00
23783;DHT22;12071;50.850;4.446;2023-07-31T06:38:11;17.50;1.00
23783;DHT22;12071;50.850;4.446;2023-07-31T06:40:37;17.50;1.00
23783;DHT22;12071;50.850;4.446;2023-07-31T06:43:02;17.50;1.00
23783;DHT22;12071;50.850;4.446;2023-07-31T06:45:36;17.50;1.00
23783;DHT22;12071;50.850;4.446;2023-07-31T06:48:03;17.60;1.00
23783;DHT22;12071;50.850;4.446;2023-07-31T06:50:30;17.60;1.00
23783;DHT22;12071;50.850;4.446;2023-07-31T06:52:56;17.60;1.00
23783;DHT22;12071;50.850;4.446;2023-07-31T06:55:22;17.80;1.00
23783;DHT22;12071;50.850;4.446;2023-07-31T06:57:49;17.60;1.00
23783;DHT22;12071;50.850;4.446;2023-07-31T07:00:15;17.70;1.00
23783;DHT22;12071;50.850;4.446;2023-07-31T07:02:41;17.80;1.00
23783;DHT22;12071;50.850;4.446;2023-07-31T07:05:07;18.00;1.00
23783;DHT22;12071;50.850;4.446;2023-07-31T07:07:34;18.00;1.00
23783;DHT22;12071;50.850;4.446;2023-07-31T07:09:59;18.20;1.00
23783;DHT22;12071;50.850;4.446;2023-07-31T07:12:26;18.30;1.00
23783;DHT22;12071;50.850;4.446;2023-07-31T07:14:51;18.30;1.00
23783;DHT22;12071;50.850;4.446;2023-07-31T07:17:19;18.30;1.00
23783;DHT22;12071;50.850;4.446;2023-07-31T07:19:44;18.40;1.00
23783;DHT22;12071;50.850;4.446;2023-07-31T07:22:11;18.40;1.00
23783;DHT22;12071;50.850;4.446;2023-07-31T07:24:37;18.50;1.00
23783;DHT22;12071;50.850;4.446;2023-07-31T07:27:03;18.60;1.00
23783;DHT22;12071;50.850;4.446;2023-07-31T07:29:29;18.60;1.00
23783;DHT22;12071;50.850;4.446;2023-07-31T07:31:54;18.60;1.00
23783;DHT22;12071;50.850;4.446;2023-07-31T07:34:24;18.40;1.00
23783;DHT22;12071;50.850;4.446;2023-07-31T07:36:49;18.30;1.00
23783;DHT22;12071;50.850;4.446;2023-07-31T07:39:15;18.20;1.00
23783;DHT22;12071;50.850;4.446;2023-07-31T07:41:40;18.20;1.00
23783;DHT22;12071;50.850;4.446;2023-07-31T07:44:07;18.40;1.00
23783;DHT22;12071;50.850;4.446;2023-07-31T07:46:33;18.30;1.00
23783;DHT22;12071;50.850;4.446;2023-07-31T07:48:58;18.40;1.00
23783;DHT22;12071;50.850;4.446;2023-07-31T07:51:24;18.40;1.00
23783;DHT22;12071;50.850;4.446;2023-07-31T07:53:49;18.50;1.00
23783;DHT22;12071;50.850;4.446;2023-07-31T07:56:15;18.40;1.00
23783;DHT22;12071;50.850;4.446;2023-07-31T07:58:40;18.50;1.00
23783;DHT22;12071;50.850;4.446;2023-07-31T08:01:06;18.50;1.00
23783;DHT22;12071;50.850;4.446;2023-07-31T08:03:31;18.70;1.00
23783;DHT22;12071;50.850;4.446;2023-07-31T08:06:01;18.50;1.00
23783;DHT22;12071;50.850;4.446;2023-07-31T08:08:27;18.30;1.00
23783;DHT22;12071;50.850;4.446;2023-07-31T08:10:53;18.30;1.00
23783;DHT22;12071;50.850;4.446;2023-07-31T08:13:19;18.40;1.00
23783;DHT22;12071;50.850;4.446;2023-07-31T08:15:44;18.20;1.00
23783;DHT22;12071;50.850;4.446;2023-07-31T08:18:10;18.30;1.00
23783;DHT22;12071;50.850;4.446;2023-07-31T08:20:39;18.40;1.00
23783;DHT22;12071;50.850;4.446;2023-07-31T08:23:04;18.40;1.00
23783;DHT22;12071;50.850;4.446;2023-07-31T08:25:30;18.40;1.00
23783;DHT22;12071;50.850;4.446;2023-07-31T08:27:56;18.70;1.00
23783;DHT22;12071;50.850;4.446;2023-07-31T08:30:21;18.80;1.00
23783;DHT22;12071;50.850;4.446;2023-07-31T08:32:47;18.70;1.00
23783;DHT22;12071;50.850;4.446;2023-07-31T08:35:13;18.60;1.00
23783;DHT22;12071;50.850;4.446;2023-07-31T08:37:39;18.60;1.00
23783;DHT22;12071;50.850;4.446;2023-07-31T08:40:08;18.50;1.00
23783;DHT22;12071;50.850;4.446;2023-07-31T08:42:34;18.50;1.00
23783;DHT22;12071;50.850;4.446;2023-07-31T08:44:59;18.50;1.00
23783;DHT22;12071;50.850;4.446;2023-07-31T08:47:27;18.60;1.00
23783;DHT22;12071;50.850;4.446;2023-07-31T08:49:54;18.50;1.00
23783;DHT22;12071;50.850;4.446;2023-07-31T08:52:21;18.40;1.00
23783;DHT22;12071;50.850;4.446;2023-07-31T08:54:46;18.40;1.00
23783;DHT22;12071;50.850;4.446;2023-07-31T08:57:13;18.50;1.00
23783;DHT22;12071;50.850;4.446;2023-07-31T08:59:39;18.60;1.00
23783;DHT22;12071;50.850;4.446;2023-07-31T09:02:08;18.60;1.00
23783;DHT22;12071;50.850;4.446;2023-07-31T09:04:34;18.60;1.00
23783;DHT22;12071;50.850;4.446;2023-07-31T09:07:02;18.60;1.00
23783;DHT22;12071;50.850;4.446;2023-07-31T09:09:30;18.50;1.00
23783;DHT22;12071;50.850;4.446;2023-07-31T09:11:57;18.40;1.00
23783;DHT22;12071;50.850;4.446;2023-07-31T09:14:25;18.50;1.00
23783;DHT22;12071;50.850;4.446;2023-07-31T09:16:53;18.60;1.00
23783;DHT22;12071;50.850;4.446;2023-07-31T09:19:27;18.80;1.00
23783;DHT22;12071;50.850;4.446;2023-07-31T09:21:52;18.70;1.00
23783;DHT22;12071;50.850;4.446;2023-07-31T09:24:28;18.80;1.00
23783;DHT22;12071;50.850;4.446;2023-07-31T09:26:55;18.90;1.00
23783;DHT22;12071;50.850;4.446;2023-07-31T09:29:22;18.90;1.00
23783;DHT22;12071;50.850;4.446;2023-07-31T09:31:48;19.00;1.00
23783;DHT22;12071;50.850;4.446;2023-07-31T09:34:13;19.00;1.00
23783;DHT22;12071;50.850;4.446;2023-07-31T09:36:48;19.30;1.00
23783;DHT22;12071;50.850;4.446;2023-07-31T09:39:15;19.20;1.00
23783;DHT22;12071;50.850;4.446;2023-07-31T09:41:55;19.10;1.00
23783;DHT22;12071;50.850;4.446;2023-07-31T09:44:20;19.00;1.00
23783;DHT22;12071;50.850;4.446;2023-07-31T09:46:46;19.00;1.00
23783;DHT22;12071;50.850;4.446;2023-07-31T09:49:13;18.90;1.00
23783;DHT22;12071;50.850;4.446;2023-07-31T09:51:40;19.00;1.00
23783;DHT22;12071;50.850;4.446;2023-07-31T09:54:16;19.10;1.00
23783;DHT22;12071;50.850;4.446;2023-07-31T09:56:48;19.00;1.00
23783;DHT22;12071;50.850;4.446;2023-07-31T09:59:19;19.00;1.00
23783;DHT22;12071;50.850;4.446;2023-07-31T10:01:46;18.90;1.00
23783;DHT22;12071;50.850;4.446;2023-07-31T10:04:14;18.90;1.00
23783;DHT22;12071;50.850;4.446;2023-07-31T10:06:43;18.80;1.00
23783;DHT22;12071;50.850;4.446;2023-07-31T10:09:12;18.80;1.00
23783;DHT22;12071;50.850;4.446;2023-07-31T10:11:51;18.70;1.00
23783;DHT22;12071;50.850;4.446;2023-07-31T10:14:20;18.70;1.00
23783;DHT22;12071;50.850;4.446;2023-07-31T10:16:45;18.90;1.00
23783;DHT22;12071;50.850;4.446;2023-07-31T10:19:11;18.90;1.00
23783;DHT22;12071;50.850;4.446;2023-07-31T10:21:37;18.90;1.00
23783;DHT22;12071;50.850;4.446;2023-07-31T10:24:06;19.20;1.00
23783;DHT22;12071;50.850;4.446;2023-07-31T10:26:32;19.20;1.00
23783;DHT22;12071;50.850;4.446;2023-07-31T10:29:01;19.30;1.00
23783;DHT22;12071;50.850;4.446;2023-07-31T10:31:28;19.30;1.00
23783;DHT22;12071;50.850;4.446;2023-07-31T10:33:54;19.20;1.00
23783;DHT22;12071;50.850;4.446;2023-07-31T10:36:21;19.20;1.00
23783;DHT22;12071;50.850;4.446;2023-07-31T10:38:50;19.30;1.00
23783;DHT22;12071;50.850;4.446;2023-07-31T10:41:18;19.30;1.00
23783;DHT22;12071;50.850;4.446;2023-07-31T10:43:46;19.40;1.00
23783;DHT22;12071;50.850;4.446;2023-07-31T10:46:13;19.20;1.00
23783;DHT22;12071;50.850;4.446;2023-07-31T10:48:40;19.40;1.00
23783;DHT22;12071;50.850;4.446;2023-07-31T10:51:11;19.50;1.00
23783;DHT22;12071;50.850;4.446;2023-07-31T10:53:41;19.70;1.00
23783;DHT22;12071;50.850;4.446;2023-07-31T10:56:10;19.60;1.00
23783;DHT22;12071;50.850;4.446;2023-07-31T10:58:44;19.50;1.00
23783;DHT22;12071;50.850;4.446;2023-07-31T11:01:11;19.70;1.00
23783;DHT22;12071;50.850;4.446;2023-07-31T11:03:50;19.90;1.00
23783;DHT22;12071;50.850;4.446;2023-07-31T11:06:18;20.00;1.00
23783;DHT22;12071;50.850;4.446;2023-07-31T11:08:46;20.00;1.00
23783;DHT22;12071;50.850;4.446;2023-07-31T11:11:17;20.30;1.00
23783;DHT22;12071;50.850;4.446;2023-07-31T11:13:51;20.40;1.00
23783;DHT22;12071;50.850;4.446;2023-07-31T11:16:22;20.40;1.00
23783;DHT22;12071;50.850;4.446;2023-07-31T11:18:48;20.10;1.00
23783;DHT22;12071;50.850;4.446;2023-07-31T11:21:15;20.40;1.00
23783;DHT22;12071;50.850;4.446;2023-07-31T11:23:41;20.40;1.00
23783;DHT22;12071;50.850;4.446;2023-07-31T11:26:07;20.60;1.00
23783;DHT22;12071;50.850;4.446;2023-07-31T11:28:33;20.60;1.00
23783;DHT22;12071;50.850;4.446;2023-07-31T11:31:00;20.70;1.00
23783;DHT22;12071;50.850;4.446;2023-07-31T11:33:26;20.50;1.00
23783;DHT22;12071;50.850;4.446;2023-07-31T11:35:51;20.50;1.00
23783;DHT22;12071;50.850;4.446;2023-07-31T11:38:30;20.40;1.00
23783;DHT22;12071;50.850;4.446;2023-07-31T11:41:01;20.40;1.00
23783;DHT22;12071;50.850;4.446;2023-07-31T11:43:30;20.50;1.00
23783;DHT22;12071;50.850;4.446;2023-07-31T11:45:58;20.50;99.90
23783;DHT22;12071;50.850;4.446;2023-07-31T11:48:24;20.30;1.00
23783;DHT22;12071;50.850;4.446;2023-07-31T11:50:53;20.30;1.00
23783;DHT22;12071;50.850;4.446;2023-07-31T11:53:33;20.30;1.00
23783;DHT22;12071;50.850;4.446;2023-07-31T11:56:01;20.30;1.00
23783;DHT22;12071;50.850;4.446;2023-07-31T11:58:30;20.60;1.00
23783;DHT22;12071;50.850;4.446;2023-07-31T12:00:57;20.60;1.00
23783;DHT22;12071;50.850;4.446;2023-07-31T12:03:23;20.60;1.00
23783;DHT22;12071;50.850;4.446;2023-07-31T12:05:49;20.60;99.90
23783;DHT22;12071;50.850;4.446;2023-07-31T12:08:15;20.40;99.90
23783;DHT22;12071;50.850;4.446;2023-07-31T12:10:41;20.60;1.00
23783;DHT22;12071;50.850;4.446;2023-07-31T12:13:12;20.70;99.90
23783;DHT22;12071;50.850;4.446;2023-07-31T12:15:42;21.00;99.90
23783;DHT22;12071;50.850;4.446;2023-07-31T12:18:18;21.10;99.90
23783;DHT22;12071;50.850;4.446;2023-07-31T12:20:47;21.40;99.90
23783;DHT22;12071;50.850;4.446;2023-07-31T12:23:33;21.30;99.90
23783;DHT22;12071;50.850;4.446;2023-07-31T12:26:16;21.10;99.90
23783;DHT22;12071;50.850;4.446;2023-07-31T12:28:46;21.20;99.90
23783;DHT22;12071;50.850;4.446;2023-07-31T12:31:15;21.40;99.90
23783;DHT22;12071;50.850;4.446;2023-07-31T12:33:43;21.10;99.90
23783;DHT22;12071;50.850;4.446;2023-07-31T12:36:16;20.90;99.90
23783;DHT22;12071;50.850;4.446;2023-07-31T12:38:43;21.00;99.90
23783;DHT22;12071;50.850;4.446;2023-07-31T12:41:09;21.10;99.90
23783;DHT22;12071;50.850;4.446;2023-07-31T12:43:35;21.00;99.90
23783;DHT22;12071;50.850;4.446;2023-07-31T12:46:01;21.10;99.90
23783;DHT22;12071;50.850;4.446;2023-07-31T12:48:27;21.20;99.90
23783;DHT22;12071;50.850;4.446;2023-07-31T12:50:52;21.50;99.90
23783;DHT22;12071;50.850;4.446;2023-07-31T12:53:18;21.50;99.90
23783;DHT22;12071;50.850;4.446;2023-07-31T12:55:44;21.60;99.90
23783;DHT22;12071;50.850;4.446;2023-07-31T12:58:09;21.30;99.90
23783;DHT22;12071;50.850;4.446;2023-07-31T13:00:35;21.10;99.90
23783;DHT22;12071;50.850;4.446;2023-07-31T13:03:01;21.10;99.90
23783;DHT22;12071;50.850;4.446;2023-07-31T13:05:28;20.80;99.90
23783;DHT22;12071;50.850;4.446;2023-07-31T13:07:53;20.60;99.90
23783;DHT22;12071;50.850;4.446;2023-07-31T13:10:19;20.40;1.00
23783;DHT22;12071;50.850;4.446;2023-07-31T13:12:45;20.20;1.00
23783;DHT22;12071;50.850;4.446;2023-07-31T13:15:11;20.10;1.00
23783;DHT22;12071;50.850;4.446;2023-07-31T13:17:37;20.10;1.00
23783;DHT22;12071;50.850;4.446;2023-07-31T13:20:03;20.10;1.00
23783;DHT22;12071;50.850;4.446;2023-07-31T13:22:30;20.10;1.00
23783;DHT22;12071;50.850;4.446;2023-07-31T13:24:55;19.90;1.00
23783;DHT22;12071;50.850;4.446;2023-07-31T13:27:21;19.80;1.00
23783;DHT22;12071;50.850;4.446;2023-07-31T13:29:50;19.60;1.00
23783;DHT22;12071;50.850;4.446;2023-07-31T13:32:17;19.50;1.00
23783;DHT22;12071;50.850;4.446;2023-07-31T13:34:44;19.40;1.00
23783;DHT22;12071;50.850;4.446;2023-07-31T13:37:09;19.40;1.00
23783;DHT22;12071;50.850;4.446;2023-07-31T13:39:35;19.50;1.00
23783;DHT22;12071;50.850;4.446;2023-07-31T13:42:03;19.40;1.00
23783;DHT22;12071;50.850;4.446;2023-07-31T13:44:28;19.40;1.00
23783;DHT22;12071;50.850;4.446;2023-07-31T13:46:54;19.40;1.00
23783;DHT22;12071;50.850;4.446;2023-07-31T13:49:20;19.30;1.00
23783;DHT22;12071;50.850;4.446;2023-07-31T13:51:45;19.20;1.00
23783;DHT22;12071;50.850;4.446;2023-07-31T13:54:11;19.20;1.00
23783;DHT22;12071;50.850;4.446;2023-07-31T13:56:37;19.20;1.00
23783;DHT22;12071;50.850;4.446;2023-07-31T13:59:03;19.10;1.00
23783;DHT22;12071;50.850;4.446;2023-07-31T14:01:29;19.00;1.00
23783;DHT22;12071;50.850;4.446;2023-07-31T14:03:55;19.00;1.00
23783;DHT22;12071;50.850;4.446;2023-07-31T14:06:21;19.00;1.00
23783;DHT22;12071;50.850;4.446;2023-07-31T14:08:46;18.90;1.00
23783;DHT22;12071;50.850;4.446;2023-07-31T14:11:12;18.90;1.00
23783;DHT22;12071;50.850;4.446;2023-07-31T14:13:37;18.80;1.00
23783;DHT22;12071;50.850;4.446;2023-07-31T14:16:03;18.80;1.00
23783;DHT22;12071;50.850;4.446;2023-07-31T14:18:29;18.80;1.00
23783;DHT22;12071;50.850;4.446;2023-07-31T14:20:55;18.80;1.00
23783;DHT22;12071;50.850;4.446;2023-07-31T14:23:20;18.90;1.00
23783;DHT22;12071;50.850;4.446;2023-07-31T14:25:46;18.80;1.00
23783;DHT22;12071;50.850;4.446;2023-07-31T14:28:12;18.90;1.00
23783;DHT22;12071;50.850;4.446;2023-07-31T14:30:38;19.10;1.00
23783;DHT22;12071;50.850;4.446;2023-07-31T14:33:03;19.20;1.00
23783;DHT22;12071;50.850;4.446;2023-07-31T14:35:29;19.20;1.00
23783;DHT22;12071;50.850;4.446;2023-07-31T14:37:54;19.20;1.00
23783;DHT22;12071;50.850;4.446;2023-07-31T14:40:20;19.20;1.00
23783;DHT22;12071;50.850;4.446;2023-07-31T14:42:46;19.00;1.00
23783;DHT22;12071;50.850;4.446;2023-07-31T14:45:11;19.20;1.00
23783;DHT22;12071;50.850;4.446;2023-07-31T14:47:37;19.10;1.00
23783;DHT22;12071;50.850;4.446;2023-07-31T14:50:03;19.00;1.00
23783;DHT22;12071;50.850;4.446;2023-07-31T14:52:29;19.00;1.00
23783;DHT22;12071;50.850;4.446;2023-07-31T14:54:54;19.10;1.00
23783;DHT22;12071;50.850;4.446;2023-07-31T14:57:20;19.20;1.00
23783;DHT22;12071;50.850;4.446;2023-07-31T14:59:46;19.20;1.00
23783;DHT22;12071;50.850;4.446;2023-07-31T15:02:12;19.00;1.00
23783;DHT22;12071;50.850;4.446;2023-07-31T15:04:38;19.00;1.00
23783;DHT22;12071;50.850;4.446;2023-07-31T15:07:04;19.00;1.00
23783;DHT22;12071;50.850;4.446;2023-07-31T15:09:30;19.00;1.00
23783;DHT22;12071;50.850;4.446;2023-07-31T15:11:56;18.90;1.00
23783;DHT22;12071;50.850;4.446;2023-07-31T15:14:23;18.90;1.00
23783;DHT22;12071;50.850;4.446;2023-07-31T15:16:48;18.80;1.00
23783;DHT22;12071;50.850;4.446;2023-07-31T15:19:14;18.80;1.00
23783;DHT22;12071;50.850;4.446;2023-07-31T15:21:40;18.90;1.00
23783;DHT22;12071;50.850;4.446;2023-07-31T15:24:06;19.00;1.00
23783;DHT22;12071;50.850;4.446;2023-07-31T15:26:31;19.00;1.00
23783;DHT22;12071;50.850;4.446;2023-07-31T15:29:05;18.80;1.00
23783;DHT22;12071;50.850;4.446;2023-07-31T15:31:34;18.80;1.00
23783;DHT22;12071;50.850;4.446;2023-07-31T15:34:01;18.70;1.00
23783;DHT22;12071;50.850;4.446;2023-07-31T15:36:27;18.80;1.00
23783;DHT22;12071;50.850;4.446;2023-07-31T15:38:52;18.90;1.00
23783;DHT22;12071;50.850;4.446;2023-07-31T15:41:18;18.80;1.00
23783;DHT22;12071;50.850;4.446;2023-07-31T15:43:44;19.00;1.00
23783;DHT22;12071;50.850;4.446;2023-07-31T15:46:10;18.90;1.00
23783;DHT22;12071;50.850;4.446;2023-07-31T15:48:36;18.90;1.00